Time;durP1;ratioP1;P1;durP2;ratioP2;P2;SDS_P1;SDS_P2;PMS_P1;PMS_P2;Temp;Humidity;BMP_temperature;BMP_pressure;BME280_temperature;BME280_humidity;BME280_pressure;Samples;Min_cycle;Max_cycle;Signal;HPM_P1;HPM_P2
2023/08/12 00:00:19;;;;;;;116.15;57.97;;;22.00;88.50;;;;;;4928733;28;95971;-52
2023/08/12 00:02:45;;;;;;;114.78;57.65;;;22.00;89.20;;;;;;4922893;28;96175;-51
2023/08/12 00:05:12;;;;;;;114.85;57.47;;;22.00;87.30;;;;;;4908448;28;96621;-52
2023/08/12 00:07:42;;;;;;;116.60;58.05;;;22.00;87.60;;;;;;4928836;28;95983;-48
2023/08/12 00:10:10;;;;;;;116.15;58.10;;;22.00;90.60;;;;;;4926894;28;95635;-50
2023/08/12 00:12:36;;;;;;;116.65;57.75;;;22.00;88.90;;;;;;4926621;28;96575;-53
2023/08/12 00:15:04;;;;;;;116.70;58.20;;;21.90;86.50;;;;;;4926793;28;94867;-53
2023/08/12 00:17:30;;;;;;;116.28;57.85;;;21.90;89.30;;;;;;4926599;28;96235;-51
2023/08/12 00:19:55;;;;;;;116.32;57.95;;;21.90;87.60;;;;;;4913087;28;95137;-50
2023/08/12 00:22:22;;;;;;;115.90;57.85;;;21.90;87.10;;;;;;4923727;28;97456;-50
2023/08/12 00:24:47;;;;;;;114.57;57.67;;;21.90;88.00;;;;;;4926264;28;98989;-52
2023/08/12 00:27:13;;;;;;;115.63;57.83;;;21.90;87.40;;;;;;4930748;28;95187;-50
2023/08/12 00:29:39;;;;;;;115.28;57.47;;;21.90;88.00;;;;;;4926659;28;96220;-52
2023/08/12 00:32:04;;;;;;;116.18;57.55;;;21.90;88.40;;;;;;4923569;28;96749;-50
2023/08/12 00:34:30;;;;;;;115.47;57.53;;;21.90;88.50;;;;;;4927200;28;95186;-51
2023/08/12 00:36:55;;;;;;;115.10;57.67;;;21.90;87.70;;;;;;4930593;28;95461;-52
2023/08/12 00:39:21;;;;;;;116.07;57.95;;;21.90;89.50;;;;;;4927496;28;97848;-53
2023/08/12 00:41:47;;;;;;;113.93;57.63;;;21.90;90.10;;;;;;4926793;28;99628;-50
2023/08/12 00:44:12;;;;;;;114.70;57.85;;;21.90;87.90;;;;;;4930359;28;97223;-47
2023/08/12 00:46:40;;;;;;;115.45;57.83;;;21.90;88.90;;;;;;4930464;28;95301;-50
2023/08/12 00:49:06;;;;;;;115.18;57.80;;;21.90;90.40;;;;;;4927152;28;95401;-51
2023/08/12 00:51:31;;;;;;;114.90;57.65;;;21.90;89.10;;;;;;4924547;28;97427;-46
2023/08/12 00:53:59;;;;;;;115.57;58.03;;;21.90;88.40;;;;;;4925412;28;96477;-47
2023/08/12 00:56:25;;;;;;;114.35;57.58;;;21.90;88.80;;;;;;4925633;28;96837;-49
2023/08/12 00:58:52;;;;;;;115.40;58.05;;;21.90;88.70;;;;;;4930780;28;95569;-48
2023/08/12 01:01:19;;;;;;;114.82;57.67;;;21.90;88.60;;;;;;4930801;28;96215;-51
2023/08/12 01:03:45;;;;;;;115.03;57.92;;;21.90;89.60;;;;;;4927561;28;98480;-49
2023/08/12 01:06:12;;;;;;;114.47;57.90;;;21.80;90.10;;;;;;4922186;28;99434;-51
2023/08/12 01:08:38;;;;;;;115.75;57.83;;;21.80;88.50;;;;;;4926859;28;100847;-49
2023/08/12 01:11:34;;;;;;;114.78;58.00;;;21.90;88.70;;;;;;4928391;28;97860;-49
2023/08/12 01:14:10;;;;;;;116.65;58.00;;;21.80;89.00;;;;;;4930962;28;95283;-53
2023/08/12 01:16:40;;;;;;;115.03;57.40;;;21.90;89.40;;;;;;4925447;28;95005;-51
2023/08/12 01:19:09;;;;;;;114.85;57.97;;;21.80;87.80;;;;;;4926564;28;97988;-52
2023/08/12 01:21:39;;;;;;;114.40;57.42;;;21.80;90.60;;;;;;4926509;28;96065;-48
2023/08/12 01:24:05;;;;;;;115.63;57.42;;;21.80;90.90;;;;;;4927257;28;96028;-52
2023/08/12 01:26:31;;;;;;;114.32;57.65;;;21.80;88.50;;;;;;4929483;28;94952;-49
2023/08/12 01:28:56;;;;;;;113.82;57.63;;;21.80;88.40;;;;;;4923857;28;95081;-52
2023/08/12 01:31:30;;;;;;;114.00;57.60;;;21.80;89.10;;;;;;4928660;28;99446;-53
2023/08/12 01:34:01;;;;;;;113.90;57.88;;;21.80;88.40;;;;;;4924721;28;95415;-51
2023/08/12 01:36:31;;;;;;;113.95;57.53;;;21.80;88.20;;;;;;4927917;28;95439;-49
2023/08/12 01:38:59;;;;;;;115.55;57.63;;;21.80;90.40;;;;;;4926188;28;95322;-51
2023/08/12 01:41:26;;;;;;;114.47;57.80;;;21.80;89.00;;;;;;4925455;28;96457;-52
2023/08/12 01:43:52;;;;;;;114.15;57.55;;;21.80;89.30;;;;;;4927426;28;96315;-49
2023/08/12 01:46:17;;;;;;;114.40;57.60;;;21.80;90.50;;;;;;4929747;28;97321;-51
2023/08/12 01:48:43;;;;;;;114.93;57.60;;;21.80;89.20;;;;;;4926651;28;99391;-49
2023/08/12 01:51:09;;;;;;;115.80;57.67;;;21.80;88.70;;;;;;4922646;28;97453;-49
2023/08/12 01:53:34;;;;;;;116.50;57.92;;;21.80;88.90;;;;;;4909975;28;95318;-49
2023/08/12 01:56:00;;;;;;;114.15;57.95;;;21.80;88.70;;;;;;4925316;28;97053;-50
2023/08/12 01:58:29;;;;;;;117.15;58.13;;;21.80;89.30;;;;;;4927733;28;96121;-51
2023/08/12 02:00:54;;;;;;;114.57;57.97;;;21.80;89.90;;;;;;4923603;28;95756;-52
2023/08/12 02:03:20;;;;;;;114.72;57.70;;;21.70;88.10;;;;;;4928812;28;95378;-51
2023/08/12 02:05:45;;;;;;;115.20;57.97;;;21.70;90.00;;;;;;4925017;28;95958;-51
2023/08/12 02:08:11;;;;;;;114.22;57.75;;;21.70;89.00;;;;;;4926685;28;96556;-48
2023/08/12 02:10:37;;;;;;;113.80;57.50;;;21.70;88.00;;;;;;4923574;28;96084;-50
2023/08/12 02:13:03;;;;;;;114.95;57.97;;;21.70;88.10;;;;;;4927479;28;96446;-49
2023/08/12 02:15:28;;;;;;;114.28;57.85;;;21.70;89.60;;;;;;4927009;28;94835;-48
2023/08/12 02:17:54;;;;;;;114.47;57.70;;;21.70;88.40;;;;;;4924740;28;99513;-52
2023/08/12 02:20:20;;;;;;;118.05;57.97;;;21.70;88.90;;;;;;4924623;28;98668;-50
2023/08/12 02:22:45;;;;;;;113.93;57.67;;;21.70;90.50;;;;;;4927250;28;97000;-48
2023/08/12 02:25:11;;;;;;;113.53;57.40;;;21.70;90.00;;;;;;4930924;28;95206;-51
2023/08/12 02:27:36;;;;;;;113.65;57.58;;;21.70;88.50;;;;;;4923232;28;98027;-50
2023/08/12 02:30:03;;;;;;;113.53;57.10;;;21.70;88.80;;;;;;4927881;28;95938;-49
2023/08/12 02:32:28;;;;;;;113.65;57.17;;;21.70;89.80;;;;;;4927360;28;95896;-50
2023/08/12 02:34:54;;;;;;;112.53;57.05;;;21.70;88.10;;;;;;4925717;28;95365;-51
2023/08/12 02:37:20;;;;;;;113.43;57.10;;;21.70;87.80;;;;;;4923790;28;98272;-49
2023/08/12 02:39:45;;;;;;;114.25;57.85;;;21.70;90.00;;;;;;4926424;28;95168;-52
2023/08/12 02:42:11;;;;;;;114.00;57.78;;;21.70;90.30;;;;;;4928396;28;99696;-48
2023/08/12 02:44:36;;;;;;;113.30;57.20;;;21.70;90.40;;;;;;4929061;28;95247;-46
2023/08/12 02:47:02;;;;;;;113.82;57.28;;;21.70;91.30;;;;;;4928942;28;95196;-50
2023/08/12 02:49:28;;;;;;;114.72;57.55;;;21.70;90.30;;;;;;4926685;28;95976;-50
2023/08/12 02:51:53;;;;;;;114.40;57.42;;;21.60;89.50;;;;;;4925072;28;96345;-50
2023/08/12 02:54:19;;;;;;;112.57;57.10;;;21.60;89.60;;;;;;4927262;28;95614;-51
2023/08/12 02:56:45;;;;;;;113.03;57.55;;;21.70;90.00;;;;;;4921479;28;100592;-51
2023/08/12 02:59:10;;;;;;;113.63;57.55;;;21.60;90.00;;;;;;4926177;28;99853;-51
2023/08/12 03:01:36;;;;;;;113.85;57.58;;;21.60;91.40;;;;;;4919934;28;96285;-48
2023/08/12 03:04:01;;;;;;;112.28;56.90;;;21.60;90.80;;;;;;4925639;28;95344;-50
2023/08/12 03:06:27;;;;;;;111.68;56.42;;;21.60;89.30;;;;;;4920218;28;95411;-52
2023/08/12 03:08:52;;;;;;;112.05;56.60;;;21.60;88.40;;;;;;4992172;22;96819;-73
2023/08/12 03:11:19;;;;;;;114.32;57.47;;;21.60;89.30;;;;;;4990648;28;95234;-73
2023/08/12 03:13:45;;;;;;;111.68;57.00;;;21.60;91.20;;;;;;4989065;28;94256;-73
2023/08/12 03:16:14;;;;;;;111.40;56.40;;;21.50;90.70;;;;;;4988227;28;94626;-73
2023/08/12 03:18:40;;;;;;;112.57;56.33;;;21.60;89.30;;;;;;4986314;28;94610;-73
2023/08/12 03:21:09;;;;;;;112.75;57.28;;;21.60;90.10;;;;;;4987546;28;99233;-73
2023/08/12 03:23:36;;;;;;;112.43;57.38;;;21.50;89.60;;;;;;4990753;28;99132;-73
2023/08/12 03:26:03;;;;;;;110.45;56.05;;;21.60;90.60;;;;;;4970799;28;95837;-72
2023/08/12 03:28:28;;;;;;;111.80;56.70;;;21.50;88.70;;;;;;4991682;28;97083;-73
2023/08/12 03:30:54;;;;;;;111.82;56.53;;;21.50;90.30;;;;;;4979508;28;94852;-73
2023/08/12 03:33:20;;;;;;;114.22;57.55;;;21.50;89.70;;;;;;4996257;28;96493;-73
2023/08/12 03:35:46;;;;;;;112.07;56.70;;;21.50;90.70;;;;;;5000576;28;95082;-73
2023/08/12 03:38:12;;;;;;;113.10;56.80;;;21.50;90.60;;;;;;4995996;28;99709;-73
2023/08/12 03:40:38;;;;;;;112.97;57.35;;;21.50;89.80;;;;;;5002183;28;95997;-73
2023/08/12 03:43:04;;;;;;;112.28;57.10;;;21.50;91.00;;;;;;4982321;28;95220;-73
2023/08/12 03:45:30;;;;;;;112.60;57.05;;;21.50;90.80;;;;;;4979906;28;97610;-73
2023/08/12 03:47:55;;;;;;;111.97;56.78;;;21.50;90.10;;;;;;4973336;28;94940;-73
2023/08/12 03:50:21;;;;;;;111.38;56.20;;;21.50;89.10;;;;;;5003133;28;94623;-73
2023/08/12 03:52:46;;;;;;;111.65;56.60;;;21.50;90.30;;;;;;4997383;28;95855;-73
2023/08/12 03:55:12;;;;;;;112.35;56.85;;;21.50;90.00;;;;;;4995540;28;96567;-73
2023/08/12 03:57:38;;;;;;;113.13;57.15;;;21.40;90.10;;;;;;4975146;28;94357;-73
2023/08/12 04:00:04;;;;;;;111.93;56.67;;;21.40;90.20;;;;;;4977882;28;97316;-73
2023/08/12 04:02:30;;;;;;;112.22;57.05;;;21.40;90.80;;;;;;4990757;28;95947;-73
2023/08/12 04:04:55;;;;;;;111.82;56.92;;;21.40;91.10;;;;;;4995907;28;96003;-73
2023/08/12 04:07:21;;;;;;;110.85;56.75;;;21.50;90.40;;;;;;4998849;28;95696;-73
2023/08/12 04:09:46;;;;;;;110.82;56.88;;;21.40;89.90;;;;;;4982286;28;96161;-73
2023/08/12 04:12:12;;;;;;;112.13;56.83;;;21.50;90.80;;;;;;4981260;28;96683;-73
2023/08/12 04:14:38;;;;;;;111.05;56.83;;;21.40;90.30;;;;;;5005367;28;95486;-73
2023/08/12 04:17:03;;;;;;;111.10;56.63;;;21.40;90.70;;;;;;5004203;28;95494;-73
2023/08/12 04:19:29;;;;;;;111.97;56.67;;;21.40;90.90;;;;;;4984793;28;96093;-73
2023/08/12 04:21:54;;;;;;;110.78;56.58;;;21.40;90.30;;;;;;5001597;28;96112;-73
2023/08/12 04:24:20;;;;;;;111.65;56.70;;;21.40;90.90;;;;;;4978355;28;96906;-73
2023/08/12 04:26:45;;;;;;;111.05;56.85;;;21.40;91.50;;;;;;5004813;28;94191;-73
2023/08/12 04:29:11;;;;;;;111.50;56.65;;;21.40;91.50;;;;;;5005360;28;98048;-73
2023/08/12 04:31:37;;;;;;;111.50;56.67;;;21.40;91.20;;;;;;5003440;28;98223;-73
2023/08/12 04:34:03;;;;;;;111.32;56.80;;;21.40;91.00;;;;;;4997113;28;99825;-73
2023/08/12 04:36:30;;;;;;;111.05;56.88;;;21.40;90.30;;;;;;5002408;28;97179;-73
2023/08/12 04:38:55;;;;;;;111.28;56.70;;;21.40;90.80;;;;;;4981116;28;94707;-73
2023/08/12 04:41:23;;;;;;;110.38;56.20;;;21.40;90.40;;;;;;5004516;28;95098;-73
2023/08/12 04:43:49;;;;;;;112.05;57.22;;;21.40;90.50;;;;;;4995684;28;94795;-73
2023/08/12 04:46:14;;;;;;;112.05;56.65;;;21.40;90.50;;;;;;4997933;28;94479;-73
2023/08/12 04:48:40;;;;;;;110.07;56.13;;;21.40;90.80;;;;;;4992345;28;95469;-73
2023/08/12 04:51:06;;;;;;;111.00;56.70;;;21.30;90.10;;;;;;4971963;28;93932;-73
2023/08/12 04:53:32;;;;;;;111.80;56.63;;;21.40;91.30;;;;;;4984614;28;95210;-73
2023/08/12 04:55:58;;;;;;;110.55;56.40;;;21.40;89.80;;;;;;4991219;28;94746;-73
2023/08/12 04:58:24;;;;;;;110.55;56.58;;;21.40;90.40;;;;;;4993261;28;95665;-73
2023/08/12 05:00:52;;;;;;;110.97;56.63;;;21.40;90.30;;;;;;4998513;28;94547;-73
2023/08/12 05:03:17;;;;;;;110.13;56.15;;;21.40;89.70;;;;;;4988988;28;94853;-73
2023/08/12 05:05:43;;;;;;;109.82;55.95;;;21.40;90.50;;;;;;4995770;28;95506;-73
2023/08/12 05:08:09;;;;;;;110.65;56.38;;;21.40;90.20;;;;;;4989549;28;101045;-73
2023/08/12 05:10:34;;;;;;;110.38;56.22;;;21.40;90.50;;;;;;4987552;28;94375;-73
2023/08/12 05:13:00;;;;;;;110.30;56.25;;;21.40;90.90;;;;;;4999974;28;94363;-73
2023/08/12 05:15:25;;;;;;;109.80;55.88;;;21.40;90.30;;;;;;4994392;28;94088;-72
2023/08/12 05:17:51;;;;;;;109.57;55.70;;;21.30;90.10;;;;;;4992999;28;95098;-73
2023/08/12 05:20:16;;;;;;;109.68;55.88;;;21.30;90.70;;;;;;4985234;28;96599;-74
2023/08/12 05:22:42;;;;;;;109.95;56.17;;;21.30;90.60;;;;;;4995888;28;95726;-73
2023/08/12 05:25:08;;;;;;;109.63;55.72;;;21.30;90.90;;;;;;4975045;28;98580;-72
2023/08/12 05:27:33;;;;;;;110.57;55.90;;;21.30;90.40;;;;;;4999391;28;94392;-73
2023/08/12 05:29:59;;;;;;;110.78;56.03;;;21.20;90.60;;;;;;4994393;28;95237;-73
2023/08/12 05:32:25;;;;;;;109.05;55.58;;;21.20;90.80;;;;;;4998688;28;94462;-73
2023/08/12 05:34:52;;;;;;;109.63;55.70;;;21.20;90.80;;;;;;4982929;28;96583;-73
2023/08/12 05:37:18;;;;;;;109.35;55.50;;;21.20;90.40;;;;;;4997755;28;95293;-72
2023/08/12 05:39:43;;;;;;;109.15;55.55;;;21.20;90.80;;;;;;4991394;28;93763;-73
2023/08/12 05:42:09;;;;;;;109.80;55.78;;;21.20;90.50;;;;;;4987846;28;98093;-73
2023/08/12 05:44:35;;;;;;;110.35;55.78;;;21.10;91.10;;;;;;4995752;28;96210;-73
2023/08/12 05:47:00;;;;;;;110.57;55.75;;;21.10;91.00;;;;;;4996611;28;95419;-73
2023/08/12 05:49:26;;;;;;;110.20;56.03;;;21.10;90.40;;;;;;4966733;28;94652;-73
2023/08/12 05:51:51;;;;;;;110.32;55.97;;;21.10;90.80;;;;;;4982653;28;96552;-73
2023/08/12 05:54:17;;;;;;;110.18;55.67;;;21.10;90.10;;;;;;4999420;28;98493;-73
2023/08/12 05:56:42;;;;;;;111.03;56.00;;;21.10;90.70;;;;;;4998433;28;96823;-73
2023/08/12 05:59:08;;;;;;;110.00;55.55;;;21.10;90.70;;;;;;5000094;28;94512;-73
2023/08/12 06:01:34;;;;;;;110.50;55.45;;;21.10;91.20;;;;;;4983343;28;96214;-73
2023/08/12 06:03:59;;;;;;;110.75;55.97;;;21.10;90.50;;;;;;4997300;28;94023;-73
2023/08/12 06:06:25;;;;;;;109.97;55.85;;;21.10;90.00;;;;;;4994150;28;94667;-72
2023/08/12 06:08:50;;;;;;;110.28;55.65;;;21.00;89.90;;;;;;4995292;28;95479;-73
2023/08/12 06:11:16;;;;;;;108.97;55.58;;;21.00;90.00;;;;;;4997493;28;96257;-73
2023/08/12 06:13:41;;;;;;;109.07;55.15;;;21.00;89.90;;;;;;4998631;28;95587;-73
2023/08/12 06:16:08;;;;;;;109.63;55.67;;;20.90;90.00;;;;;;4993610;28;95883;-73
2023/08/12 06:18:34;;;;;;;109.55;55.47;;;20.90;90.00;;;;;;5000668;28;96136;-73
2023/08/12 06:20:59;;;;;;;108.95;55.63;;;20.90;90.10;;;;;;5003929;28;98309;-73
2023/08/12 06:23:25;;;;;;;109.15;55.33;;;20.90;90.10;;;;;;5004880;28;95673;-73
2023/08/12 06:25:50;;;;;;;109.75;55.45;;;20.90;90.10;;;;;;5003736;28;96368;-73
2023/08/12 06:28:16;;;;;;;109.88;55.47;;;20.90;89.70;;;;;;5008625;28;95775;-73
2023/08/12 06:30:45;;;;;;;109.53;55.90;;;20.90;90.00;;;;;;5008373;28;94280;-73
2023/08/12 06:33:11;;;;;;;109.18;55.72;;;20.90;89.60;;;;;;4980942;28;95892;-73
2023/08/12 06:35:36;;;;;;;109.20;55.53;;;20.90;90.00;;;;;;5003643;28;95571;-72
2023/08/12 06:38:03;;;;;;;109.25;55.15;;;20.90;89.60;;;;;;4983681;28;96022;-73
2023/08/12 06:40:30;;;;;;;109.40;55.42;;;20.90;90.00;;;;;;5001965;28;94459;-73
2023/08/12 06:42:56;;;;;;;109.10;55.60;;;21.00;89.60;;;;;;4984345;28;96010;-73
2023/08/12 06:45:21;;;;;;;108.78;55.30;;;21.00;90.30;;;;;;5004008;28;95819;-73
2023/08/12 06:47:47;;;;;;;110.07;55.60;;;21.00;89.80;;;;;;5000281;28;94072;-72
2023/08/12 06:50:13;;;;;;;109.03;55.35;;;21.00;90.10;;;;;;5001721;28;95118;-73
2023/08/12 06:52:38;;;;;;;108.80;55.33;;;21.00;89.60;;;;;;5003653;28;95251;-73
2023/08/12 06:55:05;;;;;;;109.20;55.67;;;21.00;89.30;;;;;;4981081;28;96659;-73
2023/08/12 06:57:30;;;;;;;109.85;55.78;;;21.00;89.60;;;;;;5002946;28;95523;-72
2023/08/12 06:59:56;;;;;;;109.30;55.63;;;21.00;89.50;;;;;;5001077;28;95455;-73
2023/08/12 07:02:21;;;;;;;109.65;55.90;;;21.00;89.30;;;;;;4989215;28;97667;-73
2023/08/12 07:04:47;;;;;;;109.40;55.78;;;21.10;89.00;;;;;;5009032;28;94260;-72
2023/08/12 07:07:12;;;;;;;109.07;55.63;;;21.10;90.10;;;;;;5001877;28;94802;-73
2023/08/12 07:09:38;;;;;;;109.10;55.67;;;21.10;89.30;;;;;;4977512;28;96478;-72
2023/08/12 07:12:04;;;;;;;108.97;55.60;;;21.20;89.00;;;;;;4997016;28;94865;-72
2023/08/12 07:14:29;;;;;;;110.65;56.05;;;21.20;90.00;;;;;;4999943;28;98136;-73
2023/08/12 07:16:55;;;;;;;110.03;56.00;;;21.20;88.60;;;;;;5005459;28;93698;-73
2023/08/12 07:19:21;;;;;;;109.63;56.10;;;21.20;89.00;;;;;;5002713;28;94807;-73
2023/08/12 07:21:47;;;;;;;109.70;55.80;;;21.20;89.10;;;;;;5002516;28;94698;-73
2023/08/12 07:24:12;;;;;;;110.32;55.85;;;21.30;88.60;;;;;;4981451;28;96378;-72
2023/08/12 07:26:38;;;;;;;110.88;55.78;;;21.30;88.30;;;;;;4984095;28;94624;-72
2023/08/12 07:29:04;;;;;;;108.88;55.42;;;21.30;88.40;;;;;;4993085;28;95101;-73
2023/08/12 07:31:29;;;;;;;109.55;55.80;;;21.00;87.30;;;;;;4990824;28;96612;-73
2023/08/12 07:33:55;;;;;;;109.68;55.72;;;20.70;88.50;;;;;;5009809;28;95741;-73
2023/08/12 07:36:20;;;;;;;110.60;55.88;;;20.60;88.50;;;;;;5006859;27;97913;-73
2023/08/12 07:38:46;;;;;;;113.88;55.80;;;20.60;87.50;;;;;;5008479;27;94570;-74
2023/08/12 07:41:11;;;;;;;110.50;55.83;;;20.50;85.20;;;;;;4974229;22;94695;-47
2023/08/12 07:43:37;;;;;;;110.70;55.83;;;20.40;86.90;;;;;;4960525;28;99992;-48
2023/08/12 07:46:04;;;;;;;111.68;56.17;;;20.40;86.20;;;;;;4956960;28;97826;-47
2023/08/12 07:48:29;;;;;;;111.53;55.92;;;20.40;87.20;;;;;;4959563;28;100393;-44
2023/08/12 07:50:58;;;;;;;111.10;55.83;;;20.30;86.50;;;;;;4964715;28;97321;-48
2023/08/12 07:53:24;;;;;;;110.00;56.05;;;20.40;87.00;;;;;;4966394;28;95196;-47
2023/08/12 07:55:51;;;;;;;110.78;56.22;;;20.40;87.90;;;;;;4960921;28;96394;-45
2023/08/12 07:58:17;;;;;;;110.85;55.95;;;20.30;85.70;;;;;;4967806;28;96297;-46
2023/08/12 08:00:42;;;;;;;110.50;55.65;;;20.40;87.90;;;;;;4969673;28;94868;-49
2023/08/12 08:03:08;;;;;;;111.68;56.08;;;20.40;87.40;;;;;;4963041;28;95641;-48
2023/08/12 08:05:33;;;;;;;111.80;55.72;;;20.50;87.20;;;;;;4962667;28;98140;-47
2023/08/12 08:07:59;;;;;;;111.45;56.22;;;20.60;87.20;;;;;;4960982;28;96453;-52
2023/08/12 08:10:25;;;;;;;111.40;56.20;;;20.60;86.60;;;;;;4960484;28;95738;-49
2023/08/12 08:12:50;;;;;;;111.18;55.75;;;20.60;85.60;;;;;;4961577;28;95614;-46
2023/08/12 08:15:16;;;;;;;111.22;55.63;;;20.50;86.40;;;;;;4959922;28;95054;-45
2023/08/12 08:17:42;;;;;;;110.47;56.10;;;20.50;86.70;;;;;;4956964;28;96753;-49
2023/08/12 08:20:08;;;;;;;111.97;55.67;;;20.60;87.80;;;;;;4960133;28;95113;-49
2023/08/12 08:22:33;;;;;;;112.22;56.22;;;20.70;84.90;;;;;;4963507;28;95096;-45
2023/08/12 08:24:59;;;;;;;111.53;56.03;;;20.70;87.10;;;;;;4957591;28;95332;-56
2023/08/12 08:27:25;;;;;;;109.78;55.65;;;20.60;85.30;;;;;;4957546;28;96104;-52
2023/08/12 08:29:50;;;;;;;110.03;55.53;;;20.50;86.30;;;;;;4957502;28;94580;-46
2023/08/12 08:32:16;;;;;;;110.50;55.60;;;20.40;87.10;;;;;;4961645;28;94730;-53
2023/08/12 08:34:42;;;;;;;113.75;55.95;;;20.40;88.00;;;;;;4942175;28;97975;-48
2023/08/12 08:37:08;;;;;;;114.03;55.90;;;20.40;87.80;;;;;;4960841;28;97532;-48
2023/08/12 08:39:33;;;;;;;110.05;55.75;;;20.60;88.70;;;;;;4946903;28;98752;-43
2023/08/12 08:42:00;;;;;;;113.28;56.08;;;20.80;88.30;;;;;;4961332;28;95506;-54
2023/08/12 08:44:29;;;;;;;110.25;55.92;;;20.80;89.20;;;;;;4961445;28;95808;-52
2023/08/12 08:46:55;;;;;;;112.53;56.03;;;20.80;87.50;;;;;;4965317;28;95494;-55
2023/08/12 08:49:22;;;;;;;111.00;56.38;;;20.90;88.10;;;;;;4961049;28;99185;-49
2023/08/12 08:51:49;;;;;;;110.60;55.95;;;21.00;87.40;;;;;;4961757;28;99179;-55
2023/08/12 08:54:15;;;;;;;110.15;56.15;;;21.00;86.80;;;;;;4965585;28;93977;-53
2023/08/12 08:56:41;;;;;;;112.60;55.83;;;20.90;86.00;;;;;;4960510;28;95587;-47
2023/08/12 08:59:07;;;;;;;110.13;55.63;;;20.80;85.70;;;;;;4958607;28;96224;-45
2023/08/12 09:01:35;;;;;;;110.43;55.83;;;20.90;86.80;;;;;;4958526;28;96488;-56
2023/08/12 09:04:03;;;;;;;112.75;56.15;;;20.90;86.30;;;;;;4965008;28;94680;-46
2023/08/12 09:06:29;;;;;;;111.03;56.03;;;20.80;86.50;;;;;;4946957;28;96675;-52
2023/08/12 09:08:55;;;;;;;114.00;56.00;;;21.00;86.20;;;;;;4961001;28;95087;-47
2023/08/12 09:11:21;;;;;;;119.10;57.22;;;21.10;86.40;;;;;;4960018;28;96553;-49
2023/08/12 09:13:47;;;;;;;121.45;58.60;;;21.10;86.10;;;;;;4960105;28;96279;-39
2023/08/12 09:16:13;;;;;;;116.00;56.47;;;21.30;87.90;;;;;;4958363;28;98804;-40
2023/08/12 09:18:42;;;;;;;114.55;56.90;;;21.40;85.90;;;;;;4961170;28;95217;-41
2023/08/12 09:21:08;;;;;;;114.15;57.35;;;21.50;87.00;;;;;;4961087;28;96040;-39
2023/08/12 09:23:38;;;;;;;114.35;56.85;;;21.60;86.20;;;;;;4954985;28;95226;-41
2023/08/12 09:26:15;;;;;;;113.18;56.55;;;21.60;85.80;;;;;;4957160;28;97833;-46
2023/08/12 09:28:44;;;;;;;114.70;56.67;;;21.50;83.80;;;;;;4959842;28;96616;-50
2023/08/12 09:31:32;;;;;;;113.35;56.50;;;21.50;85.10;;;;;;4956756;28;95298;-43
2023/08/12 09:34:08;;;;;;;111.50;56.08;;;21.50;85.50;;;;;;4960349;28;95741;-44
2023/08/12 09:36:34;;;;;;;111.45;56.50;;;21.60;86.80;;;;;;4954739;28;95603;-44
2023/08/12 09:39:05;;;;;;;112.50;56.20;;;21.60;85.10;;;;;;4956964;28;96080;-46
2023/08/12 09:41:31;;;;;;;112.50;56.58;;;21.70;83.70;;;;;;4957992;28;94836;-54
2023/08/12 09:43:57;;;;;;;114.25;57.05;;;21.90;84.60;;;;;;4958407;28;94529;-48
2023/08/12 09:46:23;;;;;;;112.40;56.83;;;22.00;83.90;;;;;;4965761;28;98937;-53
2023/08/12 09:48:52;;;;;;;116.97;56.63;;;22.00;83.00;;;;;;4970476;28;97723;-53
2023/08/12 09:51:19;;;;;;;117.75;56.83;;;22.10;82.30;;;;;;4958150;28;98904;-46
2023/08/12 09:53:47;;;;;;;116.20;57.13;;;22.10;82.30;;;;;;4966003;28;94673;-48
2023/08/12 09:56:15;;;;;;;113.13;56.45;;;22.00;82.30;;;;;;4967648;28;97275;-48
2023/08/12 09:58:43;;;;;;;111.68;56.13;;;21.90;81.60;;;;;;4958634;28;94783;-48
2023/08/12 10:01:11;;;;;;;111.90;56.60;;;21.90;81.40;;;;;;4964897;28;96059;-45
2023/08/12 10:03:37;;;;;;;111.22;56.42;;;21.90;82.80;;;;;;4966397;28;98146;-46
2023/08/12 10:06:03;;;;;;;111.30;56.20;;;21.80;81.10;;;;;;4966897;28;96645;-47
2023/08/12 10:08:29;;;;;;;111.85;55.92;;;21.70;80.90;;;;;;4957546;28;96329;-46
2023/08/12 10:10:55;;;;;;;111.30;55.85;;;21.70;82.10;;;;;;4959064;28;95155;-45
2023/08/12 10:13:24;;;;;;;111.13;56.15;;;21.70;81.50;;;;;;4966878;28;96495;-50
2023/08/12 10:15:53;;;;;;;112.85;56.17;;;21.70;81.90;;;;;;4964404;28;95769;-49
2023/08/12 10:18:22;;;;;;;110.38;55.92;;;21.70;81.40;;;;;;4948208;28;98352;-53
2023/08/12 10:20:49;;;;;;;114.40;57.00;;;21.80;83.30;;;;;;4962140;28;98345;-51
2023/08/12 10:23:18;;;;;;;111.45;56.05;;;21.90;81.50;;;;;;4964378;28;94696;-51
2023/08/12 10:25:44;;;;;;;111.65;56.08;;;21.80;80.80;;;;;;4963642;28;95506;-49
2023/08/12 10:28:11;;;;;;;110.28;56.05;;;21.80;81.80;;;;;;4961486;28;98198;-46
2023/08/12 10:30:39;;;;;;;113.50;56.35;;;22.00;83.30;;;;;;4961894;28;98208;-47
2023/08/12 10:33:06;;;;;;;117.55;56.55;;;22.00;80.70;;;;;;4966736;28;94124;-50
2023/08/12 10:35:42;;;;;;;111.25;56.38;;;22.10;82.60;;;;;;4964442;28;94759;-47
2023/08/12 10:38:08;;;;;;;111.72;56.80;;;22.10;80.20;;;;;;4963301;28;94614;-46
2023/08/12 10:40:34;;;;;;;113.00;56.47;;;22.20;79.60;;;;;;4966253;28;98449;-49
2023/08/12 10:43:00;;;;;;;115.03;56.42;;;22.20;81.20;;;;;;4956395;28;98536;-53
2023/08/12 10:45:47;;;;;;;112.63;56.45;;;22.20;80.90;;;;;;4959311;28;101462;-44
2023/08/12 10:48:24;;;;;;;111.28;56.33;;;22.20;80.70;;;;;;4955177;28;99852;-47
2023/08/12 10:50:58;;;;;;;113.70;56.40;;;22.20;78.60;;;;;;4963692;28;94768;-48
2023/08/12 10:53:32;;;;;;;112.32;56.38;;;22.10;78.30;;;;;;4948545;28;97986;-48
2023/08/12 10:56:01;;;;;;;115.13;56.47;;;22.10;77.20;;;;;;4951600;28;101478;-47
2023/08/12 10:58:45;;;;;;;113.55;56.65;;;22.20;80.60;;;;;;4965120;28;94615;-52
2023/08/12 11:01:16;;;;;;;118.07;58.03;;;22.40;80.80;;;;;;4968945;28;95198;-51
2023/08/12 11:03:42;;;;;;;;;;;22.50;79.40;;;;;;4957073;28;94515;-50
2023/08/12 11:06:10;;;;;;;115.28;57.35;;;22.60;79.30;;;;;;4964564;28;96312;-50
2023/08/12 11:08:36;;;;;;;115.30;57.42;;;22.50;77.80;;;;;;4961025;28;95460;-46
2023/08/12 11:11:02;;;;;;;114.85;56.45;;;22.60;77.30;;;;;;4966377;28;94803;-48
2023/08/12 11:13:28;;;;;;;114.88;57.10;;;22.60;77.40;;;;;;4961859;28;95279;-53
2023/08/12 11:16:07;;;;;;;113.25;57.15;;;22.40;74.10;;;;;;4935448;28;97195;-51
2023/08/12 11:18:33;;;;;;;115.93;57.25;;;22.40;75.90;;;;;;4961989;28;96923;-53
2023/08/12 11:20:59;;;;;;;115.70;57.03;;;22.50;77.00;;;;;;4967443;28;94906;-48
2023/08/12 11:23:25;;;;;;;117.32;57.20;;;22.60;76.50;;;;;;4965012;28;94800;-50
2023/08/12 11:25:52;;;;;;;113.20;57.13;;;22.50;75.00;;;;;;4970682;28;95950;-50
2023/08/12 11:28:21;;;;;;;113.88;56.90;;;22.40;76.00;;;;;;4947078;28;96767;-49
2023/08/12 11:30:47;;;;;;;114.18;57.15;;;22.50;74.60;;;;;;4967271;28;95916;-47
2023/08/12 11:33:12;;;;;;;113.82;57.05;;;22.50;75.70;;;;;;4945936;28;96565;-45
2023/08/12 11:35:39;;;;;;;113.35;57.30;;;22.70;77.90;;;;;;4954242;28;98870;-47
2023/08/12 11:38:05;;;;;;;113.68;57.00;;;22.80;75.70;;;;;;4963251;28;96685;-45
2023/08/12 11:40:31;;;;;;;116.15;57.38;;;22.70;72.80;;;;;;4949174;28;96013;-48
2023/08/12 11:42:56;;;;;;;115.45;57.22;;;22.80;73.60;;;;;;4967007;28;95413;-52
2023/08/12 11:45:24;;;;;;;115.22;57.33;;;22.90;74.60;;;;;;4971561;28;95560;-53
2023/08/12 11:47:53;;;;;;;114.57;56.92;;;22.90;73.50;;;;;;4955648;28;94986;-48
2023/08/12 11:50:26;;;;;;;114.32;56.55;;;22.90;73.20;;;;;;4962286;28;96584;-50
2023/08/12 11:52:54;;;;;;;115.93;57.35;;;22.90;73.60;;;;;;4960566;28;97651;-51
2023/08/12 11:55:21;;;;;;;115.05;57.05;;;23.00;74.10;;;;;;4964815;28;96610;-47
2023/08/12 11:57:47;;;;;;;113.75;56.95;;;22.90;72.70;;;;;;4966101;28;96250;-49
2023/08/12 12:00:13;;;;;;;114.85;57.25;;;23.00;74.30;;;;;;4964312;28;95014;-47
2023/08/12 12:02:57;;;;;;;114.20;57.05;;;23.00;71.70;;;;;;4943433;28;95892;-52
2023/08/12 12:05:28;;;;;;;114.28;56.97;;;23.00;69.30;;;;;;4960209;28;97185;-45
2023/08/12 12:07:54;;;;;;;114.20;57.63;;;23.00;68.40;;;;;;4956399;28;95856;-45
2023/08/12 12:10:25;;;;;;;115.88;57.35;;;23.00;69.50;;;;;;4960263;28;97534;-49
2023/08/12 12:12:51;;;;;;;117.60;57.33;;;23.10;69.70;;;;;;4954516;28;96086;-45
2023/08/12 12:15:16;;;;;;;116.80;57.67;;;23.20;69.00;;;;;;4953222;28;98136;-48